createdAt,value
2023-01-19T00:00:56.015Z,3.92
2023-01-19T00:03:23.958Z,4.43
2023-01-19T00:05:52.609Z,4.07
2023-01-19T00:08:20.567Z,3.38
2023-01-19T00:10:52.096Z,3.08
2023-01-19T00:13:20.051Z,3.55
2023-01-19T00:15:48.066Z,3.08
2023-01-19T00:18:18.899Z,3.42
2023-01-19T00:20:47.168Z,3.22
2023-01-19T00:23:15.122Z,3.90
2023-01-19T00:25:43.727Z,3.47
2023-01-19T00:28:12.903Z,3.00
2023-01-19T00:30:41.994Z,3.15
2023-01-19T00:33:10.363Z,3.50
2023-01-19T00:35:39.700Z,3.90
2023-01-19T00:38:07.661Z,3.13
2023-01-19T00:40:35.717Z,4.07
2023-01-19T00:43:05.026Z,3.55
2023-01-19T00:45:34.646Z,2.75
2023-01-19T00:48:03.345Z,3.45
2023-01-19T00:50:32.966Z,3.58
2023-01-19T00:53:03.232Z,3.33
2023-01-19T00:55:34.084Z,4.13
2023-01-19T00:58:02.866Z,3.47
2023-01-19T01:00:30.825Z,3.40
2023-01-19T01:02:59.339Z,3.17
2023-01-19T01:05:27.569Z,3.00
2023-01-19T01:07:55.470Z,4.25
2023-01-19T01:10:26.802Z,3.08
2023-01-19T01:12:59.315Z,3.75
2023-01-19T01:15:29.511Z,3.08
2023-01-19T01:17:57.516Z,3.08
2023-01-19T01:20:28.597Z,3.97
2023-01-19T01:22:58.391Z,4.05
2023-01-19T01:25:30.929Z,3.60
2023-01-19T01:27:58.977Z,3.05
2023-01-19T01:30:27.070Z,4.72
2023-01-19T01:32:55.788Z,3.35
2023-01-19T01:35:23.770Z,3.42
2023-01-19T01:37:51.735Z,4.00
2023-01-19T01:40:22.669Z,2.97
2023-01-19T01:42:52.073Z,3.58
2023-01-19T01:45:31.053Z,3.53
2023-01-19T01:48:05.112Z,2.50
2023-01-19T01:50:36.452Z,3.70
2023-01-19T01:53:08.887Z,4.63
2023-01-19T01:55:39.250Z,3.03
2023-01-19T01:58:11.249Z,3.55
2023-01-19T02:00:54.101Z,3.58
2023-01-19T02:03:24.621Z,2.88
2023-01-19T02:05:56.754Z,2.90
2023-01-19T02:08:49.203Z,3.58
2023-01-19T02:11:34.966Z,3.20
2023-01-19T02:14:06.882Z,2.97
2023-01-19T02:16:35.368Z,3.88
2023-01-19T02:19:03.557Z,2.90
2023-01-19T02:21:39.724Z,4.18
2023-01-19T02:24:09.851Z,3.40
2023-01-19T02:26:40.573Z,3.88
2023-01-19T02:29:10.469Z,3.50
2023-01-19T02:31:40.046Z,3.60
2023-01-19T02:34:10.539Z,3.45
2023-01-19T02:36:43.847Z,3.10
2023-01-19T02:39:15.198Z,3.08
2023-01-19T02:41:47.406Z,3.60
2023-01-19T02:44:17.317Z,3.50
2023-01-19T02:46:45.322Z,3.22
2023-01-19T02:49:13.626Z,3.00
2023-01-19T02:51:44.410Z,3.75
2023-01-19T02:54:25.020Z,3.60
2023-01-19T02:57:04.268Z,3.67
2023-01-19T02:59:54.678Z,3.17
2023-01-19T03:02:33.194Z,3.45
2023-01-19T03:05:18.174Z,3.60
2023-01-19T03:07:56.882Z,3.63
2023-01-19T03:10:32.567Z,2.40
2023-01-19T03:13:07.052Z,3.70
2023-01-19T03:15:38.333Z,3.17
2023-01-19T03:18:09.638Z,2.97
2023-01-19T03:20:39.054Z,3.30
2023-01-19T03:23:13.411Z,2.85
2023-01-19T03:25:46.521Z,3.45
2023-01-19T03:28:18.679Z,2.97
2023-01-19T03:30:51.805Z,3.75
2023-01-19T03:33:27.451Z,3.75
2023-01-19T03:36:03.537Z,3.65
2023-01-19T03:38:36.266Z,3.70
2023-01-19T03:41:09.900Z,2.63
2023-01-19T03:43:39.252Z,3.33
2023-01-19T03:46:08.658Z,3.53
2023-01-19T03:48:36.929Z,3.95
2023-01-19T03:51:07.281Z,3.25
2023-01-19T03:53:35.534Z,3.20
2023-01-19T03:56:06.037Z,4.88
2023-01-19T03:58:33.956Z,3.97
2023-01-19T04:01:04.148Z,3.03
2023-01-19T04:03:35.190Z,3.78
2023-01-19T04:06:03.260Z,3.10
2023-01-19T04:08:32.539Z,3.78
2023-01-19T04:11:00.743Z,3.97
2023-01-19T04:13:30.532Z,3.13
2023-01-19T04:16:00.833Z,3.38
2023-01-19T04:18:29.699Z,3.63
2023-01-19T04:21:02.923Z,3.20
2023-01-19T04:23:31.131Z,3.70
2023-01-19T04:25:59.851Z,2.92
2023-01-19T04:28:28.447Z,3.80
2023-01-19T04:30:58.061Z,3.40
2023-01-19T04:33:26.344Z,3.00
2023-01-19T04:35:56.144Z,3.28
2023-01-19T04:38:25.080Z,3.42
2023-01-19T04:40:54.231Z,3.67
2023-01-19T04:43:24.603Z,3.03
2023-01-19T04:45:52.727Z,4.28
2023-01-19T04:48:22.344Z,3.47
2023-01-19T04:50:52.335Z,3.40
2023-01-19T04:53:20.365Z,3.05
2023-01-19T04:55:48.330Z,3.58
2023-01-19T04:58:16.246Z,2.83
2023-01-19T05:00:44.637Z,3.10
2023-01-19T05:03:12.586Z,4.22
2023-01-19T05:05:41.978Z,3.72
2023-01-19T05:08:09.966Z,2.83
2023-01-19T05:10:37.952Z,3.67
2023-01-19T05:13:06.409Z,3.78
2023-01-19T05:15:34.377Z,3.83
2023-01-19T05:18:02.436Z,4.43
2023-01-19T05:20:30.415Z,3.42
2023-01-19T05:23:00.135Z,4.82
2023-01-19T05:25:29.055Z,3.33
2023-01-19T05:27:57.015Z,3.35
2023-01-19T05:30:25.311Z,3.70
2023-01-19T05:32:53.272Z,2.72
2023-01-19T05:35:31.392Z,3.80
2023-01-19T05:38:05.167Z,2.97
2023-01-19T05:40:33.392Z,4.10
2023-01-19T05:43:05.116Z,3.05
2023-01-19T05:45:33.643Z,2.22
2023-01-19T05:48:01.661Z,3.67
2023-01-19T05:50:29.599Z,2.20
2023-01-19T05:53:01.233Z,3.15
2023-01-19T05:55:30.923Z,3.08
2023-01-19T05:57:58.810Z,3.47
2023-01-19T06:00:27.646Z,3.38
2023-01-19T06:02:55.603Z,3.72
2023-01-19T06:05:23.601Z,3.50
2023-01-19T06:07:53.531Z,2.97
2023-01-19T06:10:21.496Z,3.20
2023-01-19T06:12:51.810Z,2.85
2023-01-19T06:15:20.205Z,3.55
2023-01-19T06:17:48.142Z,3.03
2023-01-19T06:20:16.408Z,3.88
2023-01-19T06:22:44.410Z,3.17
2023-01-19T06:25:13.002Z,3.13
2023-01-19T06:27:44.786Z,2.58
2023-01-19T06:30:15.286Z,2.63
2023-01-19T06:32:43.231Z,3.15
2023-01-19T06:35:12.202Z,2.47
2023-01-19T06:37:40.597Z,3.22
2023-01-19T06:40:13.651Z,3.28
2023-01-19T06:45:11.364Z,2.63
2023-01-19T06:47:40.723Z,3.08
2023-01-19T06:50:09.821Z,2.88
2023-01-19T06:52:43.937Z,3.10
2023-01-19T06:55:13.753Z,3.03
2023-01-19T06:57:42.122Z,3.03
2023-01-19T07:00:11.823Z,3.33
2023-01-19T07:02:43.313Z,3.15
2023-01-19T07:05:14.279Z,3.10
2023-01-19T07:07:43.165Z,3.70
2023-01-19T07:10:13.038Z,3.58
2023-01-19T07:12:41.213Z,2.25
2023-01-19T07:15:11.688Z,3.50
2023-01-19T07:17:42.502Z,3.38
2023-01-19T07:20:13.045Z,4.47
2023-01-19T07:22:41.415Z,2.90
2023-01-19T07:25:10.402Z,2.10
2023-01-19T07:27:41.467Z,3.33
2023-01-19T07:30:10.663Z,3.35
2023-01-19T07:32:38.931Z,2.95
2023-01-19T07:35:09.008Z,2.78
2023-01-19T07:37:37.067Z,4.05
2023-01-19T07:40:05.796Z,3.03
2023-01-19T07:42:33.742Z,2.55
2023-01-19T07:45:01.902Z,3.58
2023-01-19T07:47:30.032Z,3.35
2023-01-19T07:49:57.990Z,3.60
2023-01-19T07:52:27.204Z,3.40
2023-01-19T07:54:55.259Z,3.35
2023-01-19T07:57:24.098Z,2.92
2023-01-19T07:59:51.973Z,4.15
2023-01-19T08:02:21.961Z,2.78
2023-01-19T08:04:52.347Z,3.47
2023-01-19T08:07:20.286Z,2.55
2023-01-19T08:09:49.581Z,2.80
2023-01-19T08:12:18.268Z,4.72
2023-01-19T08:14:46.608Z,2.60
2023-01-19T08:17:14.713Z,3.80
2023-01-19T08:19:45.063Z,2.47
2023-01-19T08:22:12.967Z,2.95
2023-01-19T08:24:40.924Z,2.47
2023-01-19T08:27:13.156Z,2.60
2023-01-19T08:29:43.416Z,3.13
2023-01-19T08:32:11.561Z,1.88
2023-01-19T08:34:39.814Z,2.50
2023-01-19T08:37:07.795Z,2.75
2023-01-19T08:39:35.684Z,2.42
2023-01-19T08:42:03.894Z,2.95
2023-01-19T08:44:34.478Z,11.40
2023-01-19T08:47:02.495Z,2.60
2023-01-19T08:49:32.086Z,3.20
2023-01-19T08:52:00.175Z,2.35
2023-01-19T08:54:28.218Z,2.70
2023-01-19T08:56:56.488Z,2.78
2023-01-19T08:59:24.464Z,3.13
2023-01-19T09:01:55.043Z,3.03
2023-01-19T09:04:23.145Z,2.95
2023-01-19T09:06:51.142Z,2.63
2023-01-19T09:09:19.105Z,2.72
2023-01-19T09:11:47.022Z,3.53
2023-01-19T09:14:15.061Z,3.67
2023-01-19T09:16:43.345Z,2.67
2023-01-19T09:19:14.101Z,3.75
2023-01-19T09:21:42.035Z,3.00
2023-01-19T09:24:10.062Z,3.83
2023-01-19T09:26:40.446Z,3.15
2023-01-19T09:29:08.380Z,2.38
2023-01-19T09:31:36.332Z,3.67
2023-01-19T09:34:06.079Z,3.20
2023-01-19T09:36:36.607Z,3.58
2023-01-19T09:39:05.017Z,3.15
2023-01-19T09:41:36.324Z,3.72
2023-01-19T09:44:07.774Z,3.42
2023-01-19T09:46:39.797Z,3.38
2023-01-19T09:49:14.319Z,3.47
2023-01-19T09:51:47.252Z,4.28
2023-01-19T09:54:17.934Z,4.07
2023-01-19T09:56:51.993Z,3.75
2023-01-19T09:59:25.909Z,4.15
2023-01-19T10:02:08.629Z,3.35
2023-01-19T10:04:41.210Z,3.67
2023-01-19T10:07:27.121Z,4.47
2023-01-19T10:10:10.310Z,3.97
2023-01-19T10:12:46.646Z,3.92
2023-01-19T10:15:29.475Z,3.65
2023-01-19T10:18:12.918Z,4.97
2023-01-19T10:20:45.839Z,4.70
2023-01-19T10:23:26.098Z,5.07
2023-01-19T10:25:56.562Z,5.07
2023-01-19T10:28:27.542Z,4.43
2023-01-19T10:30:57.778Z,5.03
2023-01-19T10:33:25.963Z,4.50
2023-01-19T10:35:53.852Z,4.40
2023-01-19T10:38:23.282Z,4.68
2023-01-19T10:40:57.547Z,4.38
2023-01-19T10:43:40.299Z,4.93
2023-01-19T10:46:18.297Z,4.93
2023-01-19T10:48:49.932Z,3.83
2023-01-19T10:51:19.019Z,5.47
2023-01-19T10:54:04.167Z,3.67
2023-01-19T10:56:35.617Z,4.53
2023-01-19T10:59:07.693Z,3.85
2023-01-19T11:01:37.963Z,3.22
2023-01-19T11:04:23.628Z,3.58
2023-01-19T11:06:51.588Z,3.95
2023-01-19T11:09:23.461Z,3.78
2023-01-19T11:11:53.292Z,3.40
2023-01-19T11:14:25.373Z,4.10
2023-01-19T11:16:55.924Z,3.90
2023-01-19T11:19:28.376Z,3.85
2023-01-19T11:22:11.996Z,3.97
2023-01-19T11:24:41.554Z,3.72
2023-01-19T11:27:09.677Z,4.03
2023-01-19T11:29:38.962Z,3.88
2023-01-19T11:32:22.332Z,3.47
2023-01-19T11:34:50.800Z,3.67
2023-01-19T11:37:31.459Z,3.33
2023-01-19T11:40:07.003Z,3.33
2023-01-19T11:42:37.143Z,3.45
2023-01-19T11:45:13.335Z,4.05
2023-01-19T11:47:44.465Z,2.95
2023-01-19T11:50:23.753Z,3.80
2023-01-19T11:52:56.549Z,3.72
2023-01-19T11:55:33.947Z,3.17
2023-01-19T11:58:04.790Z,3.25
2023-01-19T12:00:38.171Z,3.33
2023-01-19T12:03:14.179Z,2.90
2023-01-19T12:05:48.772Z,3.38
2023-01-19T12:08:21.880Z,3.90
2023-01-19T12:10:53.815Z,3.15
2023-01-19T12:13:24.678Z,3.58
2023-01-19T12:15:57.807Z,3.40
2023-01-19T12:18:30.876Z,3.45
2023-01-19T12:21:01.283Z,3.70
2023-01-19T12:23:38.623Z,3.55
2023-01-19T12:26:28.924Z,3.67
2023-01-19T12:29:01.476Z,3.30
2023-01-19T12:31:29.835Z,3.95
2023-01-19T12:34:41.849Z,4.43
2023-01-19T12:37:41.999Z,4.85
2023-01-19T12:40:27.277Z,4.55
2023-01-19T12:43:02.992Z,5.00
2023-01-19T12:45:33.161Z,4.90
2023-01-19T12:48:02.332Z,5.10
2023-01-19T12:50:36.117Z,4.40
2023-01-19T12:53:08.347Z,5.13
2023-01-19T12:55:39.028Z,4.90
2023-01-19T12:58:15.107Z,3.45
2023-01-19T13:00:47.732Z,4.07
2023-01-19T13:03:45.232Z,5.20
2023-01-19T13:06:14.671Z,3.47
2023-01-19T13:09:00.174Z,3.10
2023-01-19T13:11:33.337Z,2.80
2023-01-19T13:14:45.080Z,4.30
2023-01-19T13:17:33.061Z,3.33
2023-01-19T13:20:27.223Z,3.85
2023-01-19T13:23:21.755Z,2.83
2023-01-19T13:26:14.786Z,3.85
2023-01-19T13:28:45.234Z,3.67
2023-01-19T13:31:15.138Z,4.28
2023-01-19T13:33:50.966Z,3.95
2023-01-19T13:36:29.751Z,4.30
2023-01-19T13:39:02.640Z,5.28
2023-01-19T13:41:32.629Z,4.30
2023-01-19T13:44:03.573Z,4.75
2023-01-19T13:46:35.230Z,4.32
2023-01-19T13:49:12.792Z,4.35
2023-01-19T13:51:40.717Z,4.68
2023-01-19T13:54:17.892Z,3.60
2023-01-19T13:56:50.020Z,4.38
2023-01-19T13:59:18.189Z,5.00
2023-01-19T14:01:51.032Z,4.38
2023-01-19T14:04:29.768Z,4.00
2023-01-19T14:07:02.587Z,3.42
2023-01-19T14:09:32.106Z,3.60
2023-01-19T14:12:16.695Z,4.65
2023-01-19T14:14:49.428Z,3.88
2023-01-19T14:17:24.490Z,3.97
2023-01-19T14:19:54.634Z,3.58
2023-01-19T14:22:39.739Z,4.03
2023-01-19T14:25:29.400Z,3.83
2023-01-19T14:28:30.271Z,3.67
2023-01-19T14:31:00.462Z,3.15
2023-01-19T14:33:36.931Z,2.58
2023-01-19T14:36:31.090Z,3.25
2023-01-19T14:39:01.619Z,3.05
2023-01-19T14:41:38.111Z,3.28
2023-01-19T14:44:10.841Z,3.92
2023-01-19T14:46:42.124Z,3.83
2023-01-19T14:49:21.060Z,5.13
2023-01-19T14:51:50.444Z,2.80
2023-01-19T14:54:20.459Z,3.67
2023-01-19T14:56:49.744Z,3.22
2023-01-19T14:59:17.668Z,2.72
2023-01-19T15:01:45.791Z,3.03
2023-01-19T15:04:13.848Z,2.75
2023-01-19T15:06:45.726Z,4.70
2023-01-19T15:09:15.006Z,5.18
2023-01-19T15:11:45.023Z,3.55
2023-01-19T15:14:15.836Z,3.20
2023-01-19T15:16:44.179Z,2.60
2023-01-19T15:19:13.394Z,3.05
2023-01-19T15:21:42.174Z,6.50
2023-01-19T15:24:11.030Z,3.88
2023-01-19T15:26:40.791Z,4.05
2023-01-19T15:29:28.496Z,3.58
2023-01-19T15:31:56.440Z,4.50
2023-01-19T15:34:24.457Z,3.55
2023-01-19T15:36:52.436Z,4.80
2023-01-19T15:39:20.640Z,4.22
2023-01-19T15:41:48.602Z,3.85
2023-01-19T15:44:16.690Z,3.70
2023-01-19T15:46:46.075Z,4.00
2023-01-19T15:49:14.007Z,3.60
2023-01-19T15:51:41.969Z,4.18
2023-01-19T15:54:14.268Z,4.50
2023-01-19T15:56:42.548Z,5.00
2023-01-19T15:59:10.566Z,6.28
2023-01-19T16:01:38.611Z,4.95
2023-01-19T16:04:10.976Z,6.25
2023-01-19T16:06:39.568Z,3.63
2023-01-19T16:09:07.635Z,3.90
2023-01-19T16:11:37.696Z,4.47
2023-01-19T16:14:05.684Z,4.82
2023-01-19T16:16:34.607Z,4.57
2023-01-19T16:19:02.749Z,4.88
2023-01-19T16:21:34.049Z,5.03
2023-01-19T16:24:02.304Z,4.95
2023-01-19T16:26:32.577Z,4.65
2023-01-19T16:29:02.090Z,4.20
2023-01-19T16:31:30.600Z,4.25
2023-01-19T16:33:58.728Z,4.50
2023-01-19T16:36:28.728Z,4.60
2023-01-19T16:39:04.543Z,5.28
2023-01-19T16:41:34.193Z,6.68
2023-01-19T16:44:02.464Z,4.60
2023-01-19T16:46:34.003Z,6.15
2023-01-19T16:49:03.685Z,5.10
2023-01-19T16:51:34.459Z,5.60
2023-01-19T16:54:03.920Z,5.57
2023-01-19T16:56:31.936Z,4.82
2023-01-19T16:59:00.584Z,5.90
2023-01-19T17:01:29.891Z,5.93
2023-01-19T17:03:58.107Z,5.85
2023-01-19T17:06:26.688Z,5.88
2023-01-19T17:08:55.839Z,5.82
2023-01-19T17:11:26.974Z,6.30
2023-01-19T17:13:57.174Z,5.55
2023-01-19T17:16:26.547Z,5.95
2023-01-19T17:18:55.223Z,5.25
2023-01-19T17:21:23.441Z,7.72
2023-01-19T17:23:54.141Z,6.47
2023-01-19T17:26:22.820Z,5.68
2023-01-19T17:28:52.587Z,5.65
2023-01-19T17:31:23.012Z,5.63
2023-01-19T17:33:51.521Z,4.75
2023-01-19T17:36:25.324Z,5.50
2023-01-19T17:38:55.741Z,4.97
2023-01-19T17:41:26.367Z,6.72
2023-01-19T17:43:58.625Z,5.13
2023-01-19T17:46:28.773Z,7.57
2023-01-19T17:48:58.323Z,7.35
2023-01-19T17:51:27.712Z,5.10
2023-01-19T17:53:58.023Z,6.22
2023-01-19T17:56:29.501Z,6.57
2023-01-19T17:58:59.735Z,5.40
2023-01-19T18:01:29.881Z,5.63
2023-01-19T18:03:59.636Z,5.15
2023-01-19T18:06:27.845Z,5.63
2023-01-19T18:08:55.891Z,6.28
2023-01-19T18:11:24.075Z,5.70
2023-01-19T18:13:52.535Z,5.40
2023-01-19T18:16:24.565Z,6.78
2023-01-19T18:18:53.607Z,6.88
2023-01-19T18:21:22.841Z,8.00
2023-01-19T18:23:51.910Z,5.68
2023-01-19T18:26:21.736Z,5.82
2023-01-19T18:28:55.412Z,8.30
2023-01-19T18:31:26.143Z,7.43
2023-01-19T18:33:54.688Z,5.00
2023-01-19T18:36:22.986Z,6.90
2023-01-19T18:38:51.019Z,6.53
2023-01-19T18:41:20.625Z,6.38
2023-01-19T18:43:49.224Z,6.35
2023-01-19T18:46:21.125Z,7.18
2023-01-19T18:48:50.498Z,5.90
2023-01-19T18:51:18.747Z,5.53
2023-01-19T18:53:48.076Z,7.55
2023-01-19T18:56:17.099Z,5.88
2023-01-19T18:58:46.041Z,5.93
2023-01-19T19:01:23.423Z,5.57
2023-01-19T19:03:53.750Z,6.32
2023-01-19T19:06:22.441Z,7.28
2023-01-19T19:08:52.101Z,7.72
2023-01-19T19:11:21.280Z,7.82
2023-01-19T19:13:53.889Z,7.15
2023-01-19T19:16:22.063Z,7.90
2023-01-19T19:18:50.609Z,7.40
2023-01-19T19:21:23.950Z,8.05
2023-01-19T19:23:52.405Z,7.80
2023-01-19T19:26:21.145Z,10.90
2023-01-19T19:28:49.161Z,8.73
2023-01-19T19:31:20.688Z,7.50
2023-01-19T19:33:51.007Z,9.93
2023-01-19T19:36:21.321Z,7.93
2023-01-19T19:38:49.715Z,10.23
2023-01-19T19:41:19.758Z,9.98
2023-01-19T19:43:47.880Z,8.23
2023-01-19T19:46:20.257Z,11.35
2023-01-19T19:48:48.737Z,10.50
2023-01-19T19:51:19.366Z,9.35
2023-01-19T19:53:51.561Z,10.32
2023-01-19T19:56:21.826Z,10.18
2023-01-19T19:58:50.394Z,10.40
2023-01-19T20:01:20.383Z,11.55
2023-01-19T20:03:48.787Z,15.80
2023-01-19T20:06:21.679Z,10.82
2023-01-19T20:08:52.698Z,9.82
2023-01-19T20:11:24.408Z,9.68
2023-01-19T20:13:52.447Z,11.95
2023-01-19T20:16:21.963Z,10.77
2023-01-19T20:18:53.862Z,10.32
2023-01-19T20:21:23.750Z,10.75
2023-01-19T20:23:54.055Z,10.55
2023-01-19T20:26:26.399Z,10.57
2023-01-19T20:28:55.400Z,9.05
2023-01-19T20:31:26.578Z,10.15
2023-01-19T20:33:56.131Z,10.95
2023-01-19T20:36:24.592Z,11.73
2023-01-19T20:38:55.465Z,11.02
2023-01-19T20:41:24.440Z,11.45
2023-01-19T20:43:54.741Z,11.98
2023-01-19T20:46:22.983Z,11.75
2023-01-19T20:48:53.677Z,12.68
2023-01-19T20:51:23.018Z,12.20
2023-01-19T20:53:51.245Z,13.40
2023-01-19T20:56:20.680Z,12.98
2023-01-19T20:58:49.124Z,12.35
2023-01-19T21:01:19.724Z,13.93
2023-01-19T21:03:48.623Z,11.85
2023-01-19T21:06:17.205Z,12.93
2023-01-19T21:08:45.255Z,11.88
2023-01-19T21:11:18.644Z,11.68
2023-01-19T21:13:48.563Z,12.20
2023-01-19T21:16:17.228Z,14.27
2023-01-19T21:18:45.363Z,12.30
2023-01-19T21:21:28.931Z,11.57
2023-01-19T21:23:58.608Z,13.27
2023-01-19T21:26:26.807Z,14.00
2023-01-19T21:28:57.365Z,12.82
2023-01-19T21:31:27.570Z,12.85
2023-01-19T21:33:56.621Z,12.93
2023-01-19T21:36:25.361Z,12.80
2023-01-19T21:40:11.263Z,12.00
2023-01-19T21:42:40.286Z,11.48
2023-01-19T21:45:10.356Z,13.05
2023-01-19T21:47:38.330Z,14.15
2023-01-19T21:50:06.632Z,13.02
2023-01-19T21:52:34.562Z,11.95
2023-01-19T21:55:02.618Z,11.20
2023-01-19T21:57:30.530Z,11.65
2023-01-19T22:00:02.871Z,13.15
2023-01-19T22:02:39.139Z,14.57
2023-01-19T22:05:08.142Z,12.30
2023-01-19T22:07:36.141Z,12.65
2023-01-19T22:10:04.420Z,11.18
2023-01-19T22:12:32.581Z,11.82
2023-01-19T22:15:00.488Z,11.35
2023-01-19T22:17:28.460Z,13.45
2023-01-19T22:20:01.567Z,12.63
2023-01-19T22:22:29.520Z,12.32
2023-01-19T22:24:57.653Z,12.20
2023-01-19T22:27:25.757Z,14.05
2023-01-19T22:29:53.974Z,11.52
2023-01-19T22:32:28.037Z,13.13
2023-01-19T22:34:55.906Z,11.82
2023-01-19T22:37:25.231Z,13.55
2023-01-19T22:39:54.504Z,12.57
2023-01-19T22:42:22.443Z,14.60
2023-01-19T22:44:50.351Z,12.88
2023-01-19T22:47:18.253Z,11.57
2023-01-19T22:49:46.164Z,12.88
2023-01-19T22:52:14.136Z,11.95
2023-01-19T22:54:46.100Z,13.27
2023-01-19T22:57:14.011Z,13.35
2023-01-19T22:59:43.569Z,13.32
2023-01-19T23:02:12.260Z,12.35
2023-01-19T23:04:40.504Z,11.55
2023-01-19T23:07:09.325Z,13.38
2023-01-19T23:09:39.040Z,12.30
2023-01-19T23:12:09.475Z,12.00
2023-01-19T23:14:37.585Z,12.93
2023-01-19T23:17:05.563Z,11.18
2023-01-19T23:19:33.559Z,11.63
2023-01-19T23:22:01.479Z,12.65
2023-01-19T23:24:29.436Z,11.48
2023-01-19T23:26:57.345Z,12.35
2023-01-19T23:29:26.564Z,12.75
2023-01-19T23:31:55.922Z,12.50
2023-01-19T23:34:23.857Z,12.20
2023-01-19T23:36:51.869Z,12.18
2023-01-19T23:39:21.782Z,11.73
2023-01-19T23:41:50.483Z,10.68
2023-01-19T23:44:18.539Z,12.52
2023-01-19T23:46:48.064Z,11.20
2023-01-19T23:49:16.880Z,12.45
2023-01-19T23:51:44.826Z,11.13
2023-01-19T23:54:12.975Z,11.80
2023-01-19T23:56:43.674Z,13.38
2023-01-19T23:59:13.455Z,11.35
